sensor_id;sensor_type;location;lat;lon;timestamp;pressure;altitude;pressure_sealevel;temperature;humidity
32033;BME280;31720;52.638;9.216;2023-02-25T00:01:55;99744.72;;;3.66;100.00
32033;BME280;31720;52.638;9.216;2023-02-25T00:04:57;99730.69;;;3.70;100.00
32033;BME280;31720;52.638;9.216;2023-02-25T00:07:59;99740.09;;;3.72;100.00
32033;BME280;31720;52.638;9.216;2023-02-25T00:11:03;99735.81;;;3.71;100.00
32033;BME280;31720;52.638;9.216;2023-02-25T00:14:07;99742.88;;;3.68;100.00
32033;BME280;31720;52.638;9.216;2023-02-25T00:17:09;99743.63;;;3.71;100.00
32033;BME280;31720;52.638;9.216;2023-02-25T00:20:11;99751.19;;;3.77;100.00
32033;BME280;31720;52.638;9.216;2023-02-25T00:23:13;99751.22;;;3.76;100.00
32033;BME280;31720;52.638;9.216;2023-02-25T00:26:15;99759.94;;;3.75;100.00
32033;BME280;31720;52.638;9.216;2023-02-25T00:29:18;99766.81;;;3.76;100.00
32033;BME280;31720;52.638;9.216;2023-02-25T00:32:20;99768.34;;;3.81;100.00
32033;BME280;31720;52.638;9.216;2023-02-25T00:35:22;99769.47;;;3.74;100.00
32033;BME280;31720;52.638;9.216;2023-02-25T00:38:23;99769.28;;;3.79;100.00
32033;BME280;31720;52.638;9.216;2023-02-25T00:41:27;99778.13;;;3.75;100.00
32033;BME280;31720;52.638;9.216;2023-02-25T00:44:30;99783.38;;;3.73;100.00
32033;BME280;31720;52.638;9.216;2023-02-25T00:47:32;99776.66;;;3.68;100.00
32033;BME280;31720;52.638;9.216;2023-02-25T00:50:33;99782.72;;;3.68;100.00
32033;BME280;31720;52.638;9.216;2023-02-25T00:53:35;99780.63;;;3.76;100.00
32033;BME280;31720;52.638;9.216;2023-02-25T00:56:37;99776.63;;;3.69;100.00
32033;BME280;31720;52.638;9.216;2023-02-25T00:59:40;99780.06;;;3.70;100.00
32033;BME280;31720;52.638;9.216;2023-02-25T01:02:41;99780.06;;;3.70;100.00
32033;BME280;31720;52.638;9.216;2023-02-25T01:05:44;99790.44;;;3.70;100.00
32033;BME280;31720;52.638;9.216;2023-02-25T01:08:48;99794.91;;;3.66;100.00
32033;BME280;31720;52.638;9.216;2023-02-25T01:11:50;99804.53;;;3.64;100.00
32033;BME280;31720;52.638;9.216;2023-02-25T01:14:55;99818.22;;;3.68;100.00
32033;BME280;31720;52.638;9.216;2023-02-25T01:17:57;99818.38;;;3.65;100.00
32033;BME280;31720;52.638;9.216;2023-02-25T01:20:58;99820.13;;;3.64;100.00
32033;BME280;31720;52.638;9.216;2023-02-25T01:24:01;99808.09;;;3.62;100.00
32033;BME280;31720;52.638;9.216;2023-02-25T01:27:03;99827.47;;;3.53;100.00
32033;BME280;31720;52.638;9.216;2023-02-25T01:30:07;99825.91;;;3.49;100.00
32033;BME280;31720;52.638;9.216;2023-02-25T01:33:09;99826.75;;;3.49;100.00
32033;BME280;31720;52.638;9.216;2023-02-25T01:36:11;99836.19;;;3.52;100.00
32033;BME280;31720;52.638;9.216;2023-02-25T01:39:13;99831.84;;;3.52;100.00
32033;BME280;31720;52.638;9.216;2023-02-25T01:42:16;99850.03;;;3.52;100.00
32033;BME280;31720;52.638;9.216;2023-02-25T01:45:29;99847.50;;;3.51;100.00
32033;BME280;31720;52.638;9.216;2023-02-25T01:48:32;99849.91;;;3.55;100.00
32033;BME280;31720;52.638;9.216;2023-02-25T01:51:36;99853.63;;;3.48;100.00
32033;BME280;31720;52.638;9.216;2023-02-25T01:54:38;99864.75;;;3.52;100.00
32033;BME280;31720;52.638;9.216;2023-02-25T01:57:39;99863.13;;;3.49;100.00
32033;BME280;31720;52.638;9.216;2023-02-25T02:00:42;99856.22;;;3.48;100.00
32033;BME280;31720;52.638;9.216;2023-02-25T02:03:44;99868.13;;;3.54;100.00
32033;BME280;31720;52.638;9.216;2023-02-25T02:06:48;99862.06;;;3.55;100.00
32033;BME280;31720;52.638;9.216;2023-02-25T02:09:50;99863.06;;;3.51;100.00
32033;BME280;31720;52.638;9.216;2023-02-25T02:12:55;99863.81;;;3.54;100.00
32033;BME280;31720;52.638;9.216;2023-02-25T02:16:13;99862.28;;;3.49;100.00
32033;BME280;31720;52.638;9.216;2023-02-25T02:19:26;99869.03;;;3.53;100.00
32033;BME280;31720;52.638;9.216;2023-02-25T02:22:36;99869.13;;;3.51;100.00
32033;BME280;31720;52.638;9.216;2023-02-25T02:26:23;99876.34;;;3.43;100.00
32033;BME280;31720;52.638;9.216;2023-02-25T02:29:52;99864.09;;;3.47;100.00
32033;BME280;31720;52.638;9.216;2023-02-25T02:33:10;99875.59;;;3.40;100.00
32033;BME280;31720;52.638;9.216;2023-02-25T02:36:19;99874.59;;;3.44;100.00
32033;BME280;31720;52.638;9.216;2023-02-25T02:39:33;99876.69;;;3.34;100.00
32033;BME280;31720;52.638;9.216;2023-02-25T02:42:54;99886.63;;;3.46;100.00
32033;BME280;31720;52.638;9.216;2023-02-25T02:46:04;99884.31;;;3.39;100.00
32033;BME280;31720;52.638;9.216;2023-02-25T02:49:12;99885.81;;;3.44;100.00
32033;BME280;31720;52.638;9.216;2023-02-25T02:52:19;99888.38;;;3.46;100.00
32033;BME280;31720;52.638;9.216;2023-02-25T02:55:24;99876.53;;;3.39;100.00
32033;BME280;31720;52.638;9.216;2023-02-25T02:58:28;99876.88;;;3.29;100.00
32033;BME280;31720;52.638;9.216;2023-02-25T03:01:36;99881.22;;;3.29;100.00
32033;BME280;31720;52.638;9.216;2023-02-25T03:04:42;99882.91;;;3.30;100.00
32033;BME280;31720;52.638;9.216;2023-02-25T03:07:49;99894.38;;;3.24;100.00
32033;BME280;31720;52.638;9.216;2023-02-25T03:10:52;99891.88;;;3.21;100.00
32033;BME280;31720;52.638;9.216;2023-02-25T03:13:54;99901.53;;;3.18;100.00
32033;BME280;31720;52.638;9.216;2023-02-25T03:16:59;99901.41;;;3.21;100.00
32033;BME280;31720;52.638;9.216;2023-02-25T03:20:10;99909.22;;;3.21;100.00
32033;BME280;31720;52.638;9.216;2023-02-25T03:23:18;99905.84;;;3.19;100.00
32033;BME280;31720;52.638;9.216;2023-02-25T03:26:22;99916.25;;;3.17;100.00
32033;BME280;31720;52.638;9.216;2023-02-25T03:29:27;99918.19;;;3.12;100.00
32033;BME280;31720;52.638;9.216;2023-02-25T03:32:29;99920.84;;;3.11;100.00
32033;BME280;31720;52.638;9.216;2023-02-25T03:35:34;99924.22;;;3.13;100.00
32033;BME280;31720;52.638;9.216;2023-02-25T03:38:41;99929.47;;;3.11;100.00
32033;BME280;31720;52.638;9.216;2023-02-25T03:41:46;99937.16;;;3.14;100.00
32033;BME280;31720;52.638;9.216;2023-02-25T03:44:51;99943.88;;;3.20;100.00
32033;BME280;31720;52.638;9.216;2023-02-25T03:47:54;99941.28;;;3.20;100.00
32033;BME280;31720;52.638;9.216;2023-02-25T03:51:00;99945.78;;;3.15;100.00
32033;BME280;31720;52.638;9.216;2023-02-25T03:54:02;99957.25;;;3.09;100.00
32033;BME280;31720;52.638;9.216;2023-02-25T03:57:04;99959.69;;;3.14;100.00
32033;BME280;31720;52.638;9.216;2023-02-25T04:00:07;99970.22;;;3.09;100.00
32033;BME280;31720;52.638;9.216;2023-02-25T04:03:15;99968.34;;;3.13;100.00
32033;BME280;31720;52.638;9.216;2023-02-25T04:06:20;99970.94;;;3.13;100.00
32033;BME280;31720;52.638;9.216;2023-02-25T04:09:21;99976.94;;;3.15;100.00
32033;BME280;31720;52.638;9.216;2023-02-25T04:12:22;99976.78;;;3.19;100.00
32033;BME280;31720;52.638;9.216;2023-02-25T04:15:24;99980.22;;;3.20;100.00
32033;BME280;31720;52.638;9.216;2023-02-25T04:18:26;99982.06;;;3.16;100.00
32033;BME280;31720;52.638;9.216;2023-02-25T04:21:30;99994.13;;;3.17;100.00
32033;BME280;31720;52.638;9.216;2023-02-25T04:24:32;99983.81;;;3.16;100.00
32033;BME280;31720;52.638;9.216;2023-02-25T04:27:33;99997.06;;;3.08;100.00
32033;BME280;31720;52.638;9.216;2023-02-25T04:30:35;99987.75;;;3.02;100.00
32033;BME280;31720;52.638;9.216;2023-02-25T04:33:36;99990.25;;;3.05;100.00
32033;BME280;31720;52.638;9.216;2023-02-25T04:36:39;99990.06;;;3.10;100.00
32033;BME280;31720;52.638;9.216;2023-02-25T04:39:43;100002.25;;;3.08;100.00
32033;BME280;31720;52.638;9.216;2023-02-25T04:42:44;100001.38;;;3.09;100.00
32033;BME280;31720;52.638;9.216;2023-02-25T04:45:46;100007.34;;;3.11;100.00
32033;BME280;31720;52.638;9.216;2023-02-25T04:48:48;100006.41;;;3.14;100.00
32033;BME280;31720;52.638;9.216;2023-02-25T04:51:51;100005.59;;;3.12;100.00
32033;BME280;31720;52.638;9.216;2023-02-25T04:54:53;100003.91;;;3.11;100.00
32033;BME280;31720;52.638;9.216;2023-02-25T04:57:54;100004.66;;;3.14;100.00
32033;BME280;31720;52.638;9.216;2023-02-25T05:00:58;100011.69;;;3.11;100.00
32033;BME280;31720;52.638;9.216;2023-02-25T05:03:59;100012.63;;;3.08;100.00
32033;BME280;31720;52.638;9.216;2023-02-25T05:07:02;100020.38;;;3.10;100.00
32033;BME280;31720;52.638;9.216;2023-02-25T05:10:04;100011.53;;;3.15;100.00
32033;BME280;31720;52.638;9.216;2023-02-25T05:13:06;100015.22;;;3.08;100.00
32033;BME280;31720;52.638;9.216;2023-02-25T05:16:10;100015.28;;;3.07;100.00
32033;BME280;31720;52.638;9.216;2023-02-25T05:19:14;100034.63;;;2.98;100.00
32033;BME280;31720;52.638;9.216;2023-02-25T05:22:16;100031.94;;;3.01;100.00
32033;BME280;31720;52.638;9.216;2023-02-25T05:25:18;100038.72;;;3.05;100.00
32033;BME280;31720;52.638;9.216;2023-02-25T05:28:19;100040.56;;;3.01;100.00
32033;BME280;31720;52.638;9.216;2023-02-25T05:31:21;100043.47;;;2.92;100.00
32033;BME280;31720;52.638;9.216;2023-02-25T05:34:23;100034.56;;;2.99;100.00
32033;BME280;31720;52.638;9.216;2023-02-25T05:37:26;100037.00;;;3.04;100.00
32033;BME280;31720;52.638;9.216;2023-02-25T05:40:28;100048.44;;;2.98;100.00
32033;BME280;31720;52.638;9.216;2023-02-25T05:43:29;100044.09;;;2.99;100.00
32033;BME280;31720;52.638;9.216;2023-02-25T05:46:30;100056.97;;;3.02;100.00
32033;BME280;31720;52.638;9.216;2023-02-25T05:49:32;100063.06;;;3.01;100.00
32033;BME280;31720;52.638;9.216;2023-02-25T05:52:34;100072.00;;;2.92;100.00
32033;BME280;31720;52.638;9.216;2023-02-25T05:55:40;100072.84;;;2.93;100.00
32033;BME280;31720;52.638;9.216;2023-02-25T05:58:41;100072.69;;;2.97;100.00
32033;BME280;31720;52.638;9.216;2023-02-25T06:01:43;100083.00;;;2.99;100.00
32033;BME280;31720;52.638;9.216;2023-02-25T06:04:44;100085.03;;;2.91;100.00
32033;BME280;31720;52.638;9.216;2023-02-25T06:07:48;100090.09;;;2.94;100.00
32033;BME280;31720;52.638;9.216;2023-02-25T06:10:49;100089.41;;;2.89;100.00
32033;BME280;31720;52.638;9.216;2023-02-25T06:13:52;100099.09;;;2.84;100.00
32033;BME280;31720;52.638;9.216;2023-02-25T06:16:54;100103.22;;;2.89;100.00
32033;BME280;31720;52.638;9.216;2023-02-25T06:19:56;100114.59;;;2.85;100.00
32033;BME280;31720;52.638;9.216;2023-02-25T06:22:59;100113.81;;;2.83;100.00
32033;BME280;31720;52.638;9.216;2023-02-25T06:26:01;100124.13;;;2.85;100.00
32033;BME280;31720;52.638;9.216;2023-02-25T06:29:02;100128.34;;;2.89;100.00
32033;BME280;31720;52.638;9.216;2023-02-25T06:32:04;100130.19;;;2.85;100.00
32033;BME280;31720;52.638;9.216;2023-02-25T06:35:06;100136.28;;;2.84;100.00
32033;BME280;31720;52.638;9.216;2023-02-25T06:38:09;100154.34;;;2.87;100.00
32033;BME280;31720;52.638;9.216;2023-02-25T06:41:13;100143.91;;;2.89;100.00
32033;BME280;31720;52.638;9.216;2023-02-25T06:44:15;100145.81;;;2.84;100.00
32033;BME280;31720;52.638;9.216;2023-02-25T06:47:16;100154.56;;;2.79;100.00
32033;BME280;31720;52.638;9.216;2023-02-25T06:50:18;100153.59;;;2.84;100.00
32033;BME280;31720;52.638;9.216;2023-02-25T06:53:21;100162.13;;;2.87;100.00
32033;BME280;31720;52.638;9.216;2023-02-25T06:56:23;100160.69;;;2.77;100.00
32033;BME280;31720;52.638;9.216;2023-02-25T06:59:25;100165.75;;;2.82;100.00
32033;BME280;31720;52.638;9.216;2023-02-25T07:02:26;100169.28;;;2.79;100.00
32033;BME280;31720;52.638;9.216;2023-02-25T07:05:28;100171.13;;;2.75;100.00
32033;BME280;31720;52.638;9.216;2023-02-25T07:08:31;100180.59;;;2.76;100.00
32033;BME280;31720;52.638;9.216;2023-02-25T07:11:33;100182.19;;;2.82;100.00
32033;BME280;31720;52.638;9.216;2023-02-25T07:14:35;100176.09;;;2.83;100.00
32033;BME280;31720;52.638;9.216;2023-02-25T07:17:37;100189.84;;;2.85;100.00
32033;BME280;31720;52.638;9.216;2023-02-25T07:20:38;100190.00;;;2.80;100.00
32033;BME280;31720;52.638;9.216;2023-02-25T07:23:41;100185.50;;;2.86;100.00
32033;BME280;31720;52.638;9.216;2023-02-25T07:26:43;100188.97;;;2.86;100.00
32033;BME280;31720;52.638;9.216;2023-02-25T07:29:44;100189.78;;;2.88;100.00
32033;BME280;31720;52.638;9.216;2023-02-25T07:32:45;100189.91;;;2.84;100.00
32033;BME280;31720;52.638;9.216;2023-02-25T07:35:47;100191.53;;;2.88;100.00
32033;BME280;31720;52.638;9.216;2023-02-25T07:38:49;100198.53;;;2.84;100.00
32033;BME280;31720;52.638;9.216;2023-02-25T07:41:51;100198.59;;;2.83;100.00
32033;BME280;31720;52.638;9.216;2023-02-25T07:44:52;100202.75;;;2.88;100.00
32033;BME280;31720;52.638;9.216;2023-02-25T07:47:53;100209.50;;;2.94;100.00
32033;BME280;31720;52.638;9.216;2023-02-25T07:50:55;100215.53;;;2.94;100.00
32033;BME280;31720;52.638;9.216;2023-02-25T07:53:58;100220.56;;;3.00;100.00
32033;BME280;31720;52.638;9.216;2023-02-25T07:56:59;100216.69;;;3.12;100.00
32033;BME280;31720;52.638;9.216;2023-02-25T08:00:01;100226.84;;;3.20;100.00
32033;BME280;31720;52.638;9.216;2023-02-25T08:03:03;100226.66;;;3.26;100.00
32033;BME280;31720;52.638;9.216;2023-02-25T08:06:06;100224.88;;;3.28;100.00
32033;BME280;31720;52.638;9.216;2023-02-25T08:09:09;100234.50;;;3.24;100.00
32033;BME280;31720;52.638;9.216;2023-02-25T08:12:11;100248.81;;;3.10;100.00
32033;BME280;31720;52.638;9.216;2023-02-25T08:15:12;100257.41;;;3.12;100.00
32033;BME280;31720;52.638;9.216;2023-02-25T08:18:14;100250.16;;;2.93;100.00
32033;BME280;31720;52.638;9.216;2023-02-25T08:21:18;100256.13;;;2.97;100.00
32033;BME280;31720;52.638;9.216;2023-02-25T08:24:21;100264.94;;;2.91;100.00
32033;BME280;31720;52.638;9.216;2023-02-25T08:27:23;100261.53;;;2.89;100.00
32033;BME280;31720;52.638;9.216;2023-02-25T08:30:24;100260.81;;;2.84;100.00
32033;BME280;31720;52.638;9.216;2023-02-25T08:33:27;100267.13;;;2.75;100.00
32033;BME280;31720;52.638;9.216;2023-02-25T08:36:30;100252.38;;;2.77;100.00
32033;BME280;31720;52.638;9.216;2023-02-25T08:39:33;100257.47;;;2.80;100.00
32033;BME280;31720;52.638;9.216;2023-02-25T08:42:35;100270.03;;;2.94;100.00
32033;BME280;31720;52.638;9.216;2023-02-25T08:45:37;100280.66;;;2.87;100.00
32033;BME280;31720;52.638;9.216;2023-02-25T08:48:40;100273.88;;;2.81;100.00
32033;BME280;31720;52.638;9.216;2023-02-25T08:51:42;100275.72;;;2.77;100.00
32033;BME280;31720;52.638;9.216;2023-02-25T08:54:44;100277.31;;;2.82;100.00
32033;BME280;31720;52.638;9.216;2023-02-25T08:57:46;100277.88;;;2.93;100.00
32033;BME280;31720;52.638;9.216;2023-02-25T09:00:47;100286.38;;;2.98;100.00
32033;BME280;31720;52.638;9.216;2023-02-25T09:03:49;100299.16;;;3.04;100.00
32033;BME280;31720;52.638;9.216;2023-02-25T09:06:53;100308.78;;;3.00;100.00
32033;BME280;31720;52.638;9.216;2023-02-25T09:09:58;100304.31;;;3.05;100.00
32033;BME280;31720;52.638;9.216;2023-02-25T09:13:00;100304.19;;;3.10;100.00
32033;BME280;31720;52.638;9.216;2023-02-25T09:16:02;100320.47;;;3.15;100.00
32033;BME280;31720;52.638;9.216;2023-02-25T09:19:03;100322.34;;;3.10;100.00
32033;BME280;31720;52.638;9.216;2023-02-25T09:22:05;100339.88;;;3.02;100.00
32033;BME280;31720;52.638;9.216;2023-02-25T09:25:08;100341.63;;;3.01;100.00
32033;BME280;31720;52.638;9.216;2023-02-25T09:28:10;100342.69;;;2.94;100.00
32033;BME280;31720;52.638;9.216;2023-02-25T09:31:11;100348.59;;;2.99;100.00
32033;BME280;31720;52.638;9.216;2023-02-25T09:34:12;100362.59;;;2.94;100.00
32033;BME280;31720;52.638;9.216;2023-02-25T09:37:14;100358.25;;;2.94;100.00
32033;BME280;31720;52.638;9.216;2023-02-25T09:40:18;100365.44;;;2.86;100.00
32033;BME280;31720;52.638;9.216;2023-02-25T09:43:24;100368.78;;;2.90;100.00
32033;BME280;31720;52.638;9.216;2023-02-25T09:46:29;100369.63;;;2.90;100.00
32033;BME280;31720;52.638;9.216;2023-02-25T09:49:33;100380.97;;;2.88;100.00
32033;BME280;31720;52.638;9.216;2023-02-25T09:52:39;100390.22;;;2.96;100.00
32033;BME280;31720;52.638;9.216;2023-02-25T09:55:45;100388.53;;;2.95;100.00
32033;BME280;31720;52.638;9.216;2023-02-25T09:58:51;100395.50;;;2.93;100.00
32033;BME280;31720;52.638;9.216;2023-02-25T10:01:58;100397.25;;;2.93;100.00
32033;BME280;31720;52.638;9.216;2023-02-25T10:05:11;100401.66;;;2.91;100.00
32033;BME280;31720;52.638;9.216;2023-02-25T10:08:20;100416.34;;;2.90;100.00
32033;BME280;31720;52.638;9.216;2023-02-25T10:11:35;100424.91;;;2.94;100.00
32033;BME280;31720;52.638;9.216;2023-02-25T10:14:50;100438.03;;;2.88;100.00
32033;BME280;31720;52.638;9.216;2023-02-25T10:18:04;100430.13;;;2.92;100.00
32033;BME280;31720;52.638;9.216;2023-02-25T10:21:16;100436.22;;;2.91;100.00
32033;BME280;31720;52.638;9.216;2023-02-25T10:24:29;100437.72;;;3.00;100.00
32033;BME280;31720;52.638;9.216;2023-02-25T10:27:38;100453.13;;;3.06;100.00
32033;BME280;31720;52.638;9.216;2023-02-25T10:30:47;100452.88;;;3.15;100.00
32033;BME280;31720;52.638;9.216;2023-02-25T10:33:51;100462.59;;;3.07;100.00
32033;BME280;31720;52.638;9.216;2023-02-25T10:36:55;100462.44;;;3.13;100.00
32033;BME280;31720;52.638;9.216;2023-02-25T10:39:59;100469.88;;;2.94;100.00
32033;BME280;31720;52.638;9.216;2023-02-25T10:43:18;100468.22;;;2.92;100.00
32033;BME280;31720;52.638;9.216;2023-02-25T10:46:25;100480.19;;;2.97;100.00
32033;BME280;31720;52.638;9.216;2023-02-25T10:49:30;100481.03;;;2.98;100.00
32033;BME280;31720;52.638;9.216;2023-02-25T10:52:51;100473.81;;;3.09;100.00
32033;BME280;31720;52.638;9.216;2023-02-25T10:55:53;100489.28;;;3.12;100.00
32033;BME280;31720;52.638;9.216;2023-02-25T10:59:01;100484.81;;;3.19;100.00
32033;BME280;31720;52.638;9.216;2023-02-25T11:02:04;100494.94;;;3.28;100.00
32033;BME280;31720;52.638;9.216;2023-02-25T11:05:33;100492.09;;;3.37;100.00
32033;BME280;31720;52.638;9.216;2023-02-25T11:08:36;100504.47;;;3.27;100.00
32033;BME280;31720;52.638;9.216;2023-02-25T11:11:51;100506.66;;;3.10;100.00
32033;BME280;31720;52.638;9.216;2023-02-25T11:14:55;100503.69;;;3.24;100.00
32033;BME280;31720;52.638;9.216;2023-02-25T11:17:59;100510.94;;;3.44;100.00
32033;BME280;31720;52.638;9.216;2023-02-25T11:21:04;100519.03;;;3.64;100.00
32033;BME280;31720;52.638;9.216;2023-02-25T11:24:11;100520.88;;;3.61;100.00
32033;BME280;31720;52.638;9.216;2023-02-25T11:27:25;100518.97;;;3.66;100.00
32033;BME280;31720;52.638;9.216;2023-02-25T11:30:34;100529.59;;;3.58;100.00
32033;BME280;31720;52.638;9.216;2023-02-25T11:33:38;100528.84;;;3.54;100.00
32033;BME280;31720;52.638;9.216;2023-02-25T11:36:42;100537.69;;;3.78;100.00
32033;BME280;31720;52.638;9.216;2023-02-25T11:39:51;100539.44;;;3.78;100.00
32033;BME280;31720;52.638;9.216;2023-02-25T11:43:01;100543.28;;;3.94;100.00
32033;BME280;31720;52.638;9.216;2023-02-25T11:46:16;100537.91;;;4.00;98.47
32033;BME280;31720;52.638;9.216;2023-02-25T11:49:24;100543.69;;;4.10;100.00
32033;BME280;31720;52.638;9.216;2023-02-25T11:52:33;100536.72;;;4.11;95.69
32033;BME280;31720;52.638;9.216;2023-02-25T11:55:50;100548.03;;;4.10;95.78
32033;BME280;31720;52.638;9.216;2023-02-25T11:59:04;100553.50;;;4.00;93.57
32033;BME280;31720;52.638;9.216;2023-02-25T12:02:19;100555.31;;;4.26;97.69
32033;BME280;31720;52.638;9.216;2023-02-25T12:05:38;100559.28;;;4.38;93.28
32033;BME280;31720;52.638;9.216;2023-02-25T12:08:59;100548.53;;;4.49;96.37
32033;BME280;31720;52.638;9.216;2023-02-25T12:12:33;100550.06;;;4.28;89.36
32033;BME280;31720;52.638;9.216;2023-02-25T12:15:59;100561.97;;;4.07;94.85
32033;BME280;31720;52.638;9.216;2023-02-25T12:26:20;100580.97;;;4.39;84.70
32033;BME280;31720;52.638;9.216;2023-02-25T12:29:47;100579.75;;;4.21;93.08
32033;BME280;31720;52.638;9.216;2023-02-25T12:33:03;100575.28;;;4.26;85.83
32033;BME280;31720;52.638;9.216;2023-02-25T12:36:41;100575.47;;;4.48;87.83
32033;BME280;31720;52.638;9.216;2023-02-25T12:39:54;100573.97;;;4.69;88.03
32033;BME280;31720;52.638;9.216;2023-02-25T12:43:11;100573.19;;;4.65;80.46
32033;BME280;31720;52.638;9.216;2023-02-25T12:46:26;100578.91;;;4.50;84.24
32033;BME280;31720;52.638;9.216;2023-02-25T12:49:51;100600.25;;;4.02;83.69
32033;BME280;31720;52.638;9.216;2023-02-25T12:53:08;100593.66;;;3.90;89.12
32033;BME280;31720;52.638;9.216;2023-02-25T12:56:40;100596.13;;;3.95;89.49
32033;BME280;31720;52.638;9.216;2023-02-25T12:59:59;100608.09;;;4.00;88.43
32033;BME280;31720;52.638;9.216;2023-02-25T13:03:11;100616.66;;;4.04;88.11
32033;BME280;31720;52.638;9.216;2023-02-25T13:06:36;100606.75;;;3.87;88.95
32033;BME280;31720;52.638;9.216;2023-02-25T13:09:59;100610.06;;;4.22;92.55
32033;BME280;31720;52.638;9.216;2023-02-25T13:13:16;100611.66;;;4.83;86.33
32033;BME280;31720;52.638;9.216;2023-02-25T13:16:31;100629.84;;;5.12;82.23
32033;BME280;31720;52.638;9.216;2023-02-25T13:19:57;100627.38;;;5.33;72.51
32033;BME280;31720;52.638;9.216;2023-02-25T13:23:13;100631.50;;;5.41;71.61
32033;BME280;31720;52.638;9.216;2023-02-25T13:26:44;100626.53;;;5.83;71.63
32033;BME280;31720;52.638;9.216;2023-02-25T13:30:14;100627.44;;;5.57;67.81
32033;BME280;31720;52.638;9.216;2023-02-25T13:33:44;100625.59;;;5.09;72.50
32033;BME280;31720;52.638;9.216;2023-02-25T13:36:56;100631.56;;;4.84;76.34
32033;BME280;31720;52.638;9.216;2023-02-25T13:40:19;100633.03;;;4.93;80.74
32033;BME280;31720;52.638;9.216;2023-02-25T13:43:35;100635.09;;;5.62;76.35
32033;BME280;31720;52.638;9.216;2023-02-25T13:46:56;100641.84;;;5.67;69.23
32033;BME280;31720;52.638;9.216;2023-02-25T13:50:21;100649.97;;;5.06;68.30
32033;BME280;31720;52.638;9.216;2023-02-25T13:53:51;100652.50;;;5.36;69.42
32033;BME280;31720;52.638;9.216;2023-02-25T13:57:06;100648.09;;;5.88;66.27
32033;BME280;31720;52.638;9.216;2023-02-25T14:00:43;100646.91;;;5.72;65.07
32033;BME280;31720;52.638;9.216;2023-02-25T14:04:11;100652.81;;;5.52;67.70
32033;BME280;31720;52.638;9.216;2023-02-25T14:07:32;100668.47;;;5.77;67.42
32033;BME280;31720;52.638;9.216;2023-02-25T14:10:43;100671.19;;;5.74;67.21
32033;BME280;31720;52.638;9.216;2023-02-25T14:13:59;100683.25;;;5.51;70.74
32033;BME280;31720;52.638;9.216;2023-02-25T14:17:17;100685.69;;;5.03;69.66
32033;BME280;31720;52.638;9.216;2023-02-25T14:20:34;100683.78;;;4.80;75.09
32033;BME280;31720;52.638;9.216;2023-02-25T14:23:43;100678.34;;;5.16;73.56
32033;BME280;31720;52.638;9.216;2023-02-25T14:26:58;100700.25;;;5.37;70.20
32033;BME280;31720;52.638;9.216;2023-02-25T14:30:14;100707.09;;;5.39;65.88
32033;BME280;31720;52.638;9.216;2023-02-25T14:33:41;100709.34;;;5.23;66.09
32033;BME280;31720;52.638;9.216;2023-02-25T14:36:49;100704.09;;;5.25;68.35
32033;BME280;31720;52.638;9.216;2023-02-25T14:40:11;100718.09;;;5.22;70.08
32033;BME280;31720;52.638;9.216;2023-02-25T14:43:28;100727.75;;;4.91;66.00
32033;BME280;31720;52.638;9.216;2023-02-25T14:46:33;100737.69;;;4.76;69.88
32033;BME280;31720;52.638;9.216;2023-02-25T14:49:46;100738.22;;;4.60;68.98
32033;BME280;31720;52.638;9.216;2023-02-25T14:53:13;100748.81;;;4.52;71.40
32033;BME280;31720;52.638;9.216;2023-02-25T14:56:45;100754.81;;;4.55;70.36
32033;BME280;31720;52.638;9.216;2023-02-25T15:00:07;100747.50;;;4.37;72.54
32033;BME280;31720;52.638;9.216;2023-02-25T15:03:35;100761.31;;;4.39;72.11
32033;BME280;31720;52.638;9.216;2023-02-25T15:06:59;100761.78;;;4.53;73.22
32033;BME280;31720;52.638;9.216;2023-02-25T15:10:17;100763.38;;;4.59;73.57
32033;BME280;31720;52.638;9.216;2023-02-25T15:13:39;100764.31;;;4.56;71.52
32033;BME280;31720;52.638;9.216;2023-02-25T15:17:13;100765.22;;;4.55;78.18
32033;BME280;31720;52.638;9.216;2023-02-25T15:20:32;100784.84;;;4.36;73.55
32033;BME280;31720;52.638;9.216;2023-02-25T15:23:49;100774.91;;;4.18;71.64
32033;BME280;31720;52.638;9.216;2023-02-25T15:26:52;100784.50;;;4.16;73.46
32033;BME280;31720;52.638;9.216;2023-02-25T15:29:58;100785.19;;;4.22;73.73
32033;BME280;31720;52.638;9.216;2023-02-25T15:33:14;100795.56;;;4.24;73.37
32033;BME280;31720;52.638;9.216;2023-02-25T15:36:39;100797.13;;;4.29;70.25
32033;BME280;31720;52.638;9.216;2023-02-25T15:39:49;100796.28;;;4.29;72.43
32033;BME280;31720;52.638;9.216;2023-02-25T15:42:52;100804.94;;;4.29;74.02
32033;BME280;31720;52.638;9.216;2023-02-25T15:49:35;100806.75;;;4.27;72.08
32033;BME280;31720;52.638;9.216;2023-02-25T15:52:52;100810.69;;;4.08;72.36
32033;BME280;31720;52.638;9.216;2023-02-25T15:59:41;100829.97;;;4.01;71.65
32033;BME280;31720;52.638;9.216;2023-02-25T16:02:43;100821.31;;;3.99;70.05
32033;BME280;31720;52.638;9.216;2023-02-25T16:05:45;100832.56;;;3.99;71.93
32033;BME280;31720;52.638;9.216;2023-02-25T16:08:53;100830.19;;;3.92;73.24
32033;BME280;31720;52.638;9.216;2023-02-25T16:12:04;100832.91;;;3.87;71.83
32033;BME280;31720;52.638;9.216;2023-02-25T16:15:12;100838.13;;;3.86;70.12
32033;BME280;31720;52.638;9.216;2023-02-25T16:18:21;100839.97;;;3.82;70.24
32033;BME280;31720;52.638;9.216;2023-02-25T16:21:29;100842.50;;;3.84;71.61
32033;BME280;31720;52.638;9.216;2023-02-25T16:24:31;100848.50;;;3.87;73.87
32033;BME280;31720;52.638;9.216;2023-02-25T16:27:45;100842.66;;;3.77;72.95
32033;BME280;31720;52.638;9.216;2023-02-25T16:30:52;100845.28;;;3.76;72.04
32033;BME280;31720;52.638;9.216;2023-02-25T16:34:02;100859.19;;;3.75;69.00
32033;BME280;31720;52.638;9.216;2023-02-25T16:37:09;100869.84;;;3.63;70.98
32033;BME280;31720;52.638;9.216;2023-02-25T16:40:16;100878.59;;;3.59;74.90
32033;BME280;31720;52.638;9.216;2023-02-25T16:43:26;100868.31;;;3.54;74.29